Time;durP1;ratioP1;P1;durP2;ratioP2;P2;SDS_P1;SDS_P2;PMS_P1;PMS_P2;Temp;Humidity;BMP_temperature;BMP_pressure;BME280_temperature;BME280_humidity;BME280_pressure;Samples;Min_cycle;Max_cycle;Signal;HPM_P1;HPM_P2
2023/01/20 00:00:48;;;;;;;;;34.25;26.50;;;;;4.09;75.68;100701.78;5079971;27;45365;-58
2023/01/20 00:03:13;;;;;;;;;26.50;24.25;;;;;4.01;75.28;100708.16;5076854;27;45327;-58
2023/01/20 00:05:39;;;;;;;;;17.00;13.75;;;;;4.03;75.49;100722.97;5076438;27;45550;-60
2023/01/20 00:08:04;;;;;;;;;26.50;18.00;;;;;3.98;75.05;100718.75;5096176;27;46312;-62
2023/01/20 00:10:30;;;;;;;;;28.00;23.00;;;;;3.96;75.22;100721.44;5096487;27;45419;-57
2023/01/20 00:12:55;;;;;;;;;16.00;14.25;;;;;3.92;75.30;100719.81;5096073;27;45451;-58
2023/01/20 00:15:20;;;;;;;;;19.00;17.25;;;;;3.92;74.60;100724.22;5096747;27;45857;-57
2023/01/20 00:17:46;;;;;;;;;17.00;14.00;;;;;3.97;74.50;100728.44;5080199;27;46064;-58
2023/01/20 00:20:11;;;;;;;;;21.25;18.75;;;;;4.00;74.82;100738.88;5076705;27;45386;-59
2023/01/20 00:22:41;;;;;;;;;24.25;17.00;;;;;3.98;75.56;100739.81;5076481;27;45333;-56
2023/01/20 00:25:10;;;;;;;;;23.75;16.75;;;;;3.98;74.94;100745.06;5076927;27;45400;-60
2023/01/20 00:27:36;;;;;;;;;25.75;19.75;;;;;3.92;75.52;100725.06;5076360;27;45425;-57
2023/01/20 00:30:02;;;;;;;;;24.25;19.50;;;;;4.05;74.90;100742.25;5077273;27;45456;-57
2023/01/20 00:32:27;;;;;;;;;20.75;17.00;;;;;4.13;74.69;100750.78;5076031;27;45373;-59
2023/01/20 00:34:52;;;;;;;;;16.00;12.75;;;;;4.02;74.80;100739.69;5092928;27;45553;-56
2023/01/20 00:37:18;;;;;;;;;23.50;21.25;;;;;4.05;75.13;100746.66;5095199;27;45489;-56
2023/01/20 00:39:43;;;;;;;;;22.75;22.75;;;;;4.10;74.75;100758.78;5095336;27;56198;-56
2023/01/20 00:42:08;;;;;;;;;21.75;17.75;;;;;4.13;74.83;100773.63;5094865;27;45482;-58
2023/01/20 00:44:34;;;;;;;;;18.75;17.00;;;;;3.95;73.99;100763.59;5099573;27;45467;-58
2023/01/20 00:46:59;;;;;;;;;24.00;17.75;;;;;3.76;74.09;100761.41;5099034;27;46048;-57
2023/01/20 00:49:24;;;;;;;;;23.00;21.25;;;;;3.77;75.13;100778.06;5099370;27;45342;-58
2023/01/20 00:51:50;;;;;;;;;22.75;16.00;;;;;3.78;76.18;100770.16;5082838;27;45447;-59
2023/01/20 00:54:15;;;;;;;;;31.75;17.25;;;;;3.68;75.42;100757.25;5095261;27;45385;-58
2023/01/20 00:56:41;;;;;;;;;20.00;18.75;;;;;3.77;76.44;100762.28;5078586;27;45261;-59
2023/01/20 00:59:08;;;;;;;;;21.75;17.50;;;;;3.85;76.42;100771.69;5077074;28;45931;-59
2023/01/20 01:01:33;;;;;;;;;25.25;19.25;;;;;3.95;74.77;100779.38;5078648;28;45365;-59
2023/01/20 01:03:58;;;;;;;;;19.50;17.50;;;;;3.94;74.29;100775.88;5094550;27;45488;-57
2023/01/20 01:06:24;;;;;;;;;24.50;19.50;;;;;3.92;75.25;100779.47;5083721;27;46033;-58
2023/01/20 01:08:49;;;;;;;;;19.25;14.25;;;;;3.78;74.43;100788.56;5092999;27;45429;-59
2023/01/20 01:11:15;;;;;;;;;20.50;17.75;;;;;3.64;75.35;100784.53;5095333;27;45291;-58
2023/01/20 01:13:40;;;;;;;;;17.50;14.00;;;;;3.63;75.92;100788.91;5078667;27;45567;-59
2023/01/20 01:16:15;;;;;;;;;25.25;22.00;;;;;3.75;75.88;100785.13;5078248;27;46222;-60
2023/01/20 01:18:41;;;;;;;;;22.00;15.50;;;;;3.83;74.95;100788.44;5094239;27;45404;-58
2023/01/20 01:21:09;;;;;;;;;19.50;17.00;;;;;3.89;75.22;100790.03;5078506;27;45479;-59
2023/01/20 01:23:34;;;;;;;;;18.75;17.00;;;;;3.87;74.81;100782.19;5078579;27;45631;-59
2023/01/20 01:26:00;;;;;;;;;29.75;23.00;;;;;3.72;74.86;100795.72;5096125;27;45440;-60
2023/01/20 01:28:25;;;;;;;;;27.00;23.00;;;;;3.59;75.58;100815.34;5098073;27;45340;-59
2023/01/20 01:30:50;;;;;;;;;18.00;13.75;;;;;3.53;75.67;100830.38;5098863;27;45473;-59
2023/01/20 01:33:16;;;;;;;;;30.25;24.50;;;;;3.32;76.18;100811.59;5114875;27;45325;-60
2023/01/20 01:35:41;;;;;;;;;21.50;19.75;;;;;3.47;76.46;100832.25;5098740;27;46251;-59
2023/01/20 01:38:07;;;;;;;;;18.25;17.00;;;;;3.49;75.80;100823.44;5098457;27;45233;-57
2023/01/20 01:40:33;;;;;;;;;24.25;20.00;;;;;3.64;75.99;100834.50;5098638;27;45446;-58
2023/01/20 01:42:58;;;;;;;;;29.25;24.50;;;;;3.71;76.19;100833.47;5083750;27;45451;-58
2023/01/20 01:45:26;;;;;;;;;23.75;19.00;;;;;3.75;75.78;100835.09;5078662;27;46408;-56
2023/01/20 01:48:08;;;;;;;;;21.75;20.00;;;;;3.77;75.71;100834.16;5078753;27;45468;-58
2023/01/20 01:50:49;;;;;;;;;23.00;20.00;;;;;3.72;75.54;100843.94;5077178;28;45552;-58
2023/01/20 01:53:15;;;;;;;;;28.25;24.50;;;;;3.62;75.35;100845.06;5078245;27;45212;-62
2023/01/20 01:55:49;;;;;;;;;24.50;20.75;;;;;3.48;75.23;100848.00;5092533;27;46042;-58
2023/01/20 01:58:22;;;;;;;;;31.75;17.50;;;;;3.45;75.89;100842.81;5081408;27;46218;-59
2023/01/20 02:00:48;;;;;;;;;21.25;20.00;;;;;3.53;76.25;100847.91;5098231;27;45519;-57
2023/01/20 02:03:14;;;;;;;;;28.25;23.25;;;;;3.52;75.77;100861.97;5113438;27;45362;-60
2023/01/20 02:05:42;;;;;;;;;25.50;22.50;;;;;3.53;75.78;100861.06;5097963;27;46264;-57
2023/01/20 02:08:08;;;;;;;;;22.00;21.25;;;;;3.58;75.86;100863.56;5113870;27;45483;-59
2023/01/20 02:10:33;;;;;;;;;26.25;20.00;;;;;3.61;75.73;100858.25;5096988;27;45413;-59
2023/01/20 02:13:00;;;;;;;;;34.50;26.50;;;;;3.66;75.50;100875.66;5098224;27;45603;-59
2023/01/20 02:15:33;;;;;;;;;29.00;25.00;;;;;3.64;76.25;100868.69;5093706;27;46049;-57
2023/01/20 02:18:26;;;;;;;;;24.75;23.50;;;;;3.71;75.95;100867.66;5098018;27;45314;-58
2023/01/20 02:21:43;;;;;;;;;10.25;8.75;;;;;3.75;75.06;100871.94;5078308;27;45440;-56
2023/01/20 02:24:47;;;;;;;;;30.50;25.75;;;;;3.70;75.23;100852.78;5064803;28;45439;-58
2023/01/20 02:27:38;;;;;;;;;22.25;22.00;;;;;3.56;74.99;100863.63;5076688;27;45245;-58
2023/01/20 02:30:33;;;;;;;;;38.50;31.00;;;;;3.55;76.11;100878.53;5076979;27;45404;-57
2023/01/20 02:33:09;;;;;;;;;29.25;22.00;;;;;3.49;76.24;100878.66;5079156;27;45273;-58
2023/01/20 02:35:42;;;;;;;;;31.25;25.25;;;;;3.53;76.93;100890.00;5078405;27;45207;-61
2023/01/20 02:38:42;;;;;;;;;38.00;28.50;;;;;3.55;77.05;100881.16;5085289;27;45552;-57
2023/01/20 02:41:16;;;;;;;;;36.75;30.50;;;;;3.67;76.29;100887.03;5077438;27;45345;-56
2023/01/20 02:44:00;;;;;;;;;25.00;19.75;;;;;3.69;76.12;100894.00;5087630;27;45315;-58
2023/01/20 02:46:35;;;;;;;;;29.75;20.50;;;;;3.74;76.17;100894.75;5091900;27;45539;-59
2023/01/20 02:49:11;;;;;;;;;27.50;25.75;;;;;3.74;76.24;100905.25;5087913;27;46401;-60
2023/01/20 02:51:46;;;;;;;;;34.00;26.75;;;;;3.68;75.75;100902.78;5100398;27;45330;-57
2023/01/20 02:54:16;;;;;;;;;23.75;20.50;;;;;3.66;75.46;100906.38;5084630;27;45200;-62
2023/01/20 02:56:41;;;;;;;;;33.50;27.75;;;;;3.58;75.81;100908.28;5098432;27;45526;-59
2023/01/20 02:59:11;;;;;;;;;27.25;22.50;;;;;3.54;76.30;100899.59;5113129;27;46277;-60
2023/01/20 03:01:43;;;;;;;;;28.25;21.75;;;;;3.55;75.48;100904.81;5097305;27;45245;-60
2023/01/20 03:04:12;;;;;;;;;27.75;16.75;;;;;3.62;75.92;100904.69;5090935;27;45346;-59
2023/01/20 03:06:45;;;;;;;;;21.75;21.75;;;;;3.62;75.60;100905.53;5077500;27;45294;-58
2023/01/20 03:09:17;;;;;;;;;25.75;24.00;;;;;3.61;76.68;100921.34;5077301;27;46182;-57
2023/01/20 03:11:53;;;;;;;;;31.00;23.50;;;;;3.52;77.04;100920.69;5083437;27;45364;-58
2023/01/20 03:14:18;;;;;;;;;26.75;19.00;;;;;3.57;76.19;100922.34;5088826;27;45522;-58
2023/01/20 03:16:46;;;;;;;;;31.75;23.50;;;;;3.53;75.86;100927.66;5087714;27;46546;-60
2023/01/20 03:19:14;;;;;;;;;18.50;12.50;;;;;3.62;74.91;100938.88;5096939;27;46133;-56
2023/01/20 03:21:40;;;;;;;;;22.50;18.00;;;;;3.52;74.76;100919.81;5097265;27;45353;-58
2023/01/20 03:24:06;;;;;;;;;19.25;12.25;;;;;3.47;74.64;100943.56;5104725;27;45506;-57
2023/01/20 03:26:32;;;;;;;;;18.50;15.25;;;;;3.33;75.13;100943.00;5082709;27;45488;-57
2023/01/20 03:29:03;;;;;;;;;21.00;17.25;;;;;3.29;75.92;100941.34;5076821;27;45380;-57
2023/01/20 03:31:35;;;;;;;;;19.00;17.50;;;;;3.32;76.02;100943.88;5076113;27;45381;-57
2023/01/20 03:34:05;;;;;;;;;24.50;22.00;;;;;3.22;76.46;100944.97;5082034;27;45262;-58
2023/01/20 03:36:32;;;;;;;;;21.50;20.50;;;;;3.20;76.62;100945.00;5076950;27;45510;-60
2023/01/20 03:38:59;;;;;;;;;17.25;17.25;;;;;3.32;76.37;100949.16;5095981;27;47395;-58
2023/01/20 03:42:01;;;;;;;;;21.00;16.75;;;;;3.27;76.11;100951.00;5089054;27;45318;-57
2023/01/20 03:44:35;;;;;;;;;15.75;13.50;;;;;3.18;77.11;100956.44;5095059;27;45465;-55
2023/01/20 03:47:26;;;;;;;;;19.00;16.00;;;;;3.12;77.30;100956.56;5097720;27;45420;-58
2023/01/20 03:50:05;;;;;;;;;15.50;15.50;;;;;3.20;77.50;100959.91;5096677;27;46078;-58
2023/01/20 03:52:38;;;;;;;;;25.00;18.50;;;;;3.23;77.62;100954.56;5095777;27;45457;-57
2023/01/20 03:55:10;;;;;;;;;20.75;17.50;;;;;3.30;77.08;100957.97;5095705;27;45492;-57
2023/01/20 03:57:43;;;;;;;;;21.25;19.75;;;;;3.30;76.68;100961.47;5077133;27;45456;-58
2023/01/20 04:00:10;;;;;;;;;29.50;19.75;;;;;3.33;76.19;100965.78;5075949;27;46430;-56
2023/01/20 04:02:38;;;;;;;;;19.00;19.00;;;;;3.30;76.50;100969.34;5075626;27;45326;-56
2023/01/20 04:05:05;;;;;;;;;32.75;22.25;;;;;3.33;76.39;100958.75;5091089;27;45610;-58
2023/01/20 04:07:31;;;;;;;;;22.50;19.00;;;;;3.43;75.92;100973.47;5080880;27;45349;-59
2023/01/20 04:10:05;;;;;;;;;26.50;20.50;;;;;3.42;75.95;100976.97;5094092;27;46217;-59
2023/01/20 04:12:31;;;;;;;;;21.50;14.75;;;;;3.48;75.60;100976.84;5096302;27;45528;-59
2023/01/20 04:14:57;;;;;;;;;21.50;17.75;;;;;3.50;75.24;100985.56;5088259;27;45335;-59
2023/01/20 04:17:27;;;;;;;;;18.75;16.25;;;;;3.38;75.11;100983.19;5076967;27;45591;-57
2023/01/20 04:19:54;;;;;;;;;16.25;11.25;;;;;3.18;75.42;100986.22;5096648;27;46044;-57
2023/01/20 04:22:33;;;;;;;;;23.50;19.75;;;;;3.13;76.27;100984.59;5099531;27;45507;-57
2023/01/20 04:25:08;;;;;;;;;22.00;17.75;;;;;3.20;75.86;100991.44;5091163;27;45550;-59
2023/01/20 04:27:33;;;;;;;;;26.00;20.25;;;;;3.18;76.02;100987.97;5079766;27;45302;-60
2023/01/20 04:29:59;;;;;;;;;20.75;15.75;;;;;3.26;76.42;100996.59;5078631;28;45917;-57
2023/01/20 04:32:24;;;;;;;;;34.25;17.25;;;;;3.27;76.29;100997.47;5079854;27;45724;-57
2023/01/20 04:34:51;;;;;;;;;23.75;20.25;;;;;3.40;75.90;100999.81;5080294;27;45855;-58
2023/01/20 04:37:16;;;;;;;;;31.50;26.75;;;;;3.31;76.25;100988.63;5081238;27;45176;-57
2023/01/20 04:39:41;;;;;;;;;20.00;19.75;;;;;3.36;76.59;100995.50;5099325;27;46252;-57
2023/01/20 04:42:08;;;;;;;;;32.25;24.50;;;;;3.46;76.08;101002.31;5099566;27;45276;-56
2023/01/20 04:44:34;;;;;;;;;29.00;22.25;;;;;3.60;75.27;101006.41;5078653;27;45543;-57
2023/01/20 04:46:59;;;;;;;;;33.50;27.75;;;;;3.63;75.31;101003.72;5092164;27;45510;-59
2023/01/20 04:49:25;;;;;;;;;33.00;26.50;;;;;3.60;75.14;100998.53;5086055;27;50820;-59
2023/01/20 04:51:50;;;;;;;;;21.00;14.25;;;;;3.66;74.74;101009.81;5078291;27;45566;-59
2023/01/20 04:54:15;;;;;;;;;23.00;18.00;;;;;3.69;75.10;101014.13;5078620;27;45452;-60
2023/01/20 04:56:42;;;;;;;;;21.50;20.75;;;;;3.60;74.82;101002.03;5079538;27;45404;-60
2023/01/20 04:59:07;;;;;;;;;26.75;22.00;;;;;3.69;74.73;101015.00;5078458;27;45369;-59
2023/01/20 05:01:32;;;;;;;;;25.00;22.00;;;;;3.68;74.11;101015.88;5093373;27;45400;-59
2023/01/20 05:03:58;;;;;;;;;15.25;15.25;;;;;3.64;74.60;101015.97;5099584;27;45285;-57
2023/01/20 05:06:23;;;;;;;;;21.50;15.50;;;;;3.65;74.48;101023.00;5099267;27;45531;-56
2023/01/20 05:08:48;;;;;;;;;24.75;21.25;;;;;3.65;74.34;101028.25;5099813;27;45415;-57
2023/01/20 05:11:14;;;;;;;;;27.25;20.25;;;;;3.55;74.74;101031.06;5095224;27;48677;-57
2023/01/20 05:13:39;;;;;;;;;21.50;20.00;;;;;3.59;74.62;101031.00;5099227;27;45258;-56
2023/01/20 05:16:06;;;;;;;;;29.50;25.50;;;;;3.55;74.82;101033.69;5099798;27;45631;-58
2023/01/20 05:18:32;;;;;;;;;22.00;19.50;;;;;3.57;75.07;101033.66;5095714;27;47539;-56
2023/01/20 05:21:03;;;;;;;;;28.00;21.25;;;;;3.55;74.44;101038.09;5107642;27;45732;-61
2023/01/20 05:23:29;;;;;;;;;23.50;16.50;;;;;3.54;74.46;101034.59;5091835;27;45450;-58
2023/01/20 05:25:54;;;;;;;;;24.50;19.75;;;;;3.60;74.31;101043.25;5114903;27;45254;-57
2023/01/20 05:28:20;;;;;;;;;32.25;22.00;;;;;3.59;74.70;101049.41;5098459;27;45253;-57
2023/01/20 05:30:47;;;;;;;;;22.75;20.00;;;;;3.59;74.56;101052.03;5097504;27;45299;-58
2023/01/20 05:33:13;;;;;;;;;27.75;26.25;;;;;3.60;74.29;101044.09;5097466;27;45377;-55
2023/01/20 05:35:38;;;;;;;;;24.25;21.00;;;;;3.59;73.56;101049.41;5091281;27;45526;-58
2023/01/20 05:38:04;;;;;;;;;19.50;18.00;;;;;3.54;74.01;101054.75;5085388;27;47112;-58
2023/01/20 05:40:29;;;;;;;;;19.75;18.75;;;;;3.43;74.56;101051.47;5096628;27;45464;-57
2023/01/20 05:43:02;;;;;;;;;37.75;24.50;;;;;3.38;74.08;101059.41;5092744;27;45463;-58
2023/01/20 05:45:28;;;;;;;;;31.50;25.75;;;;;3.40;74.69;101057.66;5078372;27;45195;-57
2023/01/20 05:47:58;;;;;;;;;32.75;25.25;;;;;3.38;74.68;101059.41;5076741;27;47155;-56
2023/01/20 05:50:26;;;;;;;;;29.00;25.50;;;;;3.38;74.62;101069.94;5077353;27;45560;-55
2023/01/20 05:52:51;;;;;;;;;24.75;24.00;;;;;3.39;74.68;101071.69;5077907;27;45279;-59
2023/01/20 05:55:17;;;;;;;;;32.25;27.25;;;;;3.42;74.25;101076.03;5082202;27;45592;-55
2023/01/20 05:57:42;;;;;;;;;29.25;24.00;;;;;3.37;74.02;101078.72;5098858;27;46115;-56
2023/01/20 06:00:09;;;;;;;;;28.50;24.50;;;;;3.39;75.02;101074.34;5116428;27;45308;-56
2023/01/20 06:02:34;;;;;;;;;27.50;22.25;;;;;3.36;74.45;101071.72;5110436;27;45455;-58
2023/01/20 06:05:03;;;;;;;;;33.50;27.75;;;;;3.31;74.34;101073.59;5118818;27;45582;-59
2023/01/20 06:07:29;;;;;;;;;29.75;27.50;;;;;3.35;74.55;101080.53;5083191;27;46148;-59
2023/01/20 06:09:55;;;;;;;;;30.75;25.25;;;;;3.33;74.21;101079.69;5091086;27;45394;-58
2023/01/20 06:12:21;;;;;;;;;29.75;24.50;;;;;3.30;74.44;101081.50;5097702;27;45420;-60
2023/01/20 06:14:47;;;;;;;;;20.50;19.00;;;;;3.32;74.62;101092.88;5092564;27;45449;-55
2023/01/20 06:17:12;;;;;;;;;32.25;23.25;;;;;3.15;74.38;101056.38;5097288;27;45354;-57
2023/01/20 06:19:37;;;;;;;;;35.00;26.50;;;;;3.23;74.61;101070.22;5095380;27;45474;-57
2023/01/20 06:22:03;;;;;;;;;30.25;28.50;;;;;3.18;74.70;101074.72;5077183;27;45206;-56
2023/01/20 06:24:28;;;;;;;;;37.25;23.75;;;;;3.08;74.56;101066.13;5078519;27;45203;-55
2023/01/20 06:26:54;;;;;;;;;31.75;20.75;;;;;3.13;74.42;101080.06;5082260;27;45556;-54
2023/01/20 06:29:20;;;;;;;;;31.25;28.50;;;;;3.03;74.41;101069.75;5076102;27;45556;-59
2023/01/20 06:31:46;;;;;;;;;32.75;27.50;;;;;3.13;74.14;101094.97;5080603;27;45373;-60
2023/01/20 06:34:11;;;;;;;;;24.00;22.75;;;;;3.06;73.96;101077.56;5091543;27;45761;-58
2023/01/20 06:36:37;;;;;;;;;31.75;25.25;;;;;3.05;74.16;101071.44;5089843;27;46750;-56
2023/01/20 06:39:05;;;;;;;;;31.00;26.75;;;;;2.98;73.87;101061.91;5088252;27;45399;-58
2023/01/20 06:41:31;;;;;;;;;30.75;28.50;;;;;3.08;73.87;101081.88;5080072;27;45518;-58
2023/01/20 06:43:56;;;;;;;;;33.00;27.00;;;;;3.00;73.59;101069.81;5081275;27;45522;-57
2023/01/20 06:46:22;;;;;;;;;27.00;22.75;;;;;3.12;74.22;101083.56;5097273;27;45372;-58
2023/01/20 06:48:47;;;;;;;;;23.50;22.25;;;;;3.24;73.91;101098.25;5093748;27;45416;-56
2023/01/20 06:51:16;;;;;;;;;28.00;25.50;;;;;3.23;73.68;101091.25;5078969;27;45280;-58
2023/01/20 06:53:42;;;;;;;;;24.75;23.25;;;;;3.30;73.57;101098.16;5102524;27;45389;-55
2023/01/20 06:56:10;;;;;;;;;26.75;24.50;;;;;3.34;72.83;101094.56;5077142;28;45520;-55
2023/01/20 06:58:36;;;;;;;;;22.50;22.00;;;;;3.35;73.01;101101.56;5076241;27;45507;-58
2023/01/20 07:01:14;;;;;;;;;22.50;21.00;;;;;3.35;72.88;101084.91;5077362;27;45441;-57
2023/01/20 07:03:43;;;;;;;;;33.00;20.75;;;;;3.47;73.09;101113.59;5076859;27;45519;-60
2023/01/20 07:06:37;;;;;;;;;21.00;18.50;;;;;3.51;72.86;101118.78;5077354;27;45500;-59
2023/01/20 07:09:04;;;;;;;;;28.50;25.00;;;;;3.51;72.87;101103.00;5086595;27;45486;-67
2023/01/20 07:11:30;;;;;;;;;29.50;20.25;;;;;3.60;72.54;101124.78;5093168;27;45409;-59
2023/01/20 07:13:55;;;;;;;;;27.50;23.50;;;;;3.54;72.25;101118.75;5099187;27;45293;-56
2023/01/20 07:16:21;;;;;;;;;28.75;22.00;;;;;3.54;72.29;101108.22;5079302;27;46172;-57
2023/01/20 07:18:48;;;;;;;;;25.75;20.50;;;;;3.71;71.64;101130.69;5083072;27;45567;-58
2023/01/20 07:21:14;;;;;;;;;27.00;23.25;;;;;3.78;71.86;101132.31;5091331;27;45526;-58
2023/01/20 07:23:39;;;;;;;;;24.00;21.50;;;;;3.85;71.04;101139.19;5086870;27;45658;-59
2023/01/20 07:26:07;;;;;;;;;23.25;16.00;;;;;3.87;70.31;101141.78;5082174;27;47134;-59
2023/01/20 07:28:33;;;;;;;;;26.25;18.50;;;;;3.88;70.17;101136.47;5097000;27;45427;-59
2023/01/20 07:31:06;;;;;;;;;30.25;23.50;;;;;3.90;69.99;101142.56;5089716;27;45473;-59
2023/01/20 07:33:32;;;;;;;;;28.00;22.50;;;;;3.96;69.55;101155.63;5087069;27;45623;-58
2023/01/20 07:35:57;;;;;;;;;31.25;25.75;;;;;3.96;70.54;101137.22;5093530;27;45333;-58
2023/01/20 07:38:23;;;;;;;;;26.50;23.00;;;;;3.95;70.00;101130.22;5094250;27;45443;-60
2023/01/20 07:40:49;;;;;;;;;29.25;28.50;;;;;4.05;70.59;101141.44;5079699;27;45430;-59
2023/01/20 07:43:14;;;;;;;;;25.75;23.75;;;;;4.06;69.59;101145.78;5094512;27;45398;-57
2023/01/20 07:45:40;;;;;;;;;28.00;24.50;;;;;4.01;69.44;101152.91;5096792;27;45351;-57
2023/01/20 07:48:06;;;;;;;;;27.75;23.75;;;;;3.96;69.08;101147.75;5092678;27;46954;-58
2023/01/20 07:50:33;;;;;;;;;38.50;23.00;;;;;4.08;69.67;101165.91;5092311;27;45476;-60
2023/01/20 07:52:59;;;;;;;;;30.75;22.75;;;;;3.92;69.75;101134.69;5094917;27;45403;-58
2023/01/20 07:55:24;;;;;;;;;30.25;23.75;;;;;4.15;68.48;101170.13;5094108;27;45479;-59
2023/01/20 07:57:50;;;;;;;;;28.50;24.25;;;;;4.10;68.47;101158.84;5087101;27;47093;-59
2023/01/20 08:00:18;;;;;;;;;41.50;25.50;;;;;4.17;68.82;101166.59;5087854;27;46278;-58
2023/01/20 08:02:43;;;;;;;;;22.25;19.75;;;;;4.24;68.46;101173.50;5087308;27;45578;-59
2023/01/20 08:05:09;;;;;;;;;19.00;13.75;;;;;4.19;67.77;101168.34;5087409;27;46220;-59
2023/01/20 08:07:34;;;;;;;;;25.25;23.00;;;;;4.28;68.14;101175.16;5084308;27;45560;-59
2023/01/20 08:09:59;;;;;;;;;30.50;23.00;;;;;4.24;68.31;101153.28;5091655;27;45386;-58
2023/01/20 08:12:25;;;;;;;;;22.25;21.75;;;;;4.33;68.23;101173.31;5086610;27;45538;-62
2023/01/20 08:14:56;;;;;;;;;24.50;22.50;;;;;4.42;68.48;101183.63;5082761;27;45266;-59
2023/01/20 08:17:21;;;;;;;;;23.00;21.00;;;;;4.34;67.33;101169.78;5098459;27;45385;-60
2023/01/20 08:19:47;;;;;;;;;24.75;23.00;;;;;4.36;68.21;101173.25;5098864;27;45390;-58
2023/01/20 08:22:12;;;;;;;;;28.00;23.25;;;;;4.44;67.59;101184.50;5080840;27;45366;-58
2023/01/20 08:24:38;;;;;;;;;19.00;17.25;;;;;4.45;67.77;101183.59;5079334;27;45465;-59
2023/01/20 08:27:03;;;;;;;;;19.75;19.75;;;;;4.42;68.44;101188.91;5079208;27;45349;-59
2023/01/20 08:29:30;;;;;;;;;22.75;20.50;;;;;4.40;67.93;101196.84;5079198;27;45290;-59
2023/01/20 08:31:58;;;;;;;;;22.00;19.00;;;;;4.38;67.08;101187.25;5086604;27;45639;-59
2023/01/20 08:34:23;;;;;;;;;26.50;20.00;;;;;4.30;67.78;101178.66;5084922;27;45489;-58
2023/01/20 08:36:51;;;;;;;;;22.50;17.25;;;;;4.38;67.26;101197.78;5099339;27;45340;-61
2023/01/20 08:39:17;;;;;;;;;20.75;18.75;;;;;4.42;67.37;101199.44;5107232;27;45393;-60
2023/01/20 08:41:44;;;;;;;;;25.25;21.25;;;;;4.43;66.98;101203.81;5089452;27;47431;-60
2023/01/20 08:44:10;;;;;;;;;16.50;14.00;;;;;4.47;66.66;101197.59;5091217;27;47990;-59
2023/01/20 08:46:38;;;;;;;;;26.00;21.50;;;;;4.52;67.57;101198.34;5076599;27;45271;-59
2023/01/20 08:49:08;;;;;;;;;27.25;23.25;;;;;4.50;67.08;101200.16;5086918;27;45782;-58
2023/01/20 08:51:34;;;;;;;;;35.75;25.00;;;;;4.50;66.84;101197.50;5090640;27;45469;-59
2023/01/20 08:54:00;;;;;;;;;20.00;17.50;;;;;4.45;67.30;101183.59;5097185;27;45493;-59
2023/01/20 08:56:25;;;;;;;;;23.50;20.25;;;;;4.55;67.10;101203.53;5101938;27;45457;-60
2023/01/20 08:58:52;;;;;;;;;20.25;20.25;;;;;4.67;67.22;101210.31;5099150;27;45482;-59
2023/01/20 09:01:25;;;;;;;;;28.25;25.75;;;;;4.51;67.03;101178.16;5092351;27;45417;-59
2023/01/20 09:03:51;;;;;;;;;18.00;18.00;;;;;4.65;67.81;101207.72;5083711;27;45458;-58
2023/01/20 09:06:18;;;;;;;;;24.00;15.50;;;;;4.53;66.81;101202.72;5085255;27;45494;-59
2023/01/20 09:08:44;;;;;;;;;19.75;19.75;;;;;4.61;67.85;101221.84;5083686;27;45476;-59
2023/01/20 09:11:12;;;;;;;;;18.50;16.75;;;;;4.56;68.16;101210.56;5089449;27;45640;-64
2023/01/20 09:13:38;;;;;;;;;23.50;20.50;;;;;4.65;67.60;101231.41;5097063;27;46611;-60
2023/01/20 09:16:04;;;;;;;;;18.75;15.00;;;;;4.73;68.24;101226.88;5094478;27;45496;-59
2023/01/20 09:18:31;;;;;;;;;16.75;13.50;;;;;4.84;67.63;101215.22;5097934;27;45364;-59
2023/01/20 09:21:00;;;;;;;;;11.00;11.00;;;;;5.04;67.15;101232.31;5111707;27;45314;-60
2023/01/20 09:23:27;;;;;;;;;16.50;13.75;;;;;5.13;66.12;101231.22;5078219;27;45926;-60
2023/01/20 09:25:53;;;;;;;;;13.75;11.75;;;;;5.13;67.07;101225.97;5077395;27;45476;-60
2023/01/20 09:28:18;;;;;;;;;11.00;10.00;;;;;5.19;67.25;101236.34;5085754;27;45509;-59
2023/01/20 09:30:44;;;;;;;;;10.75;7.75;;;;;5.13;66.54;101231.22;5077539;27;45501;-58
2023/01/20 09:33:12;;;;;;;;;14.50;13.00;;;;;5.15;66.26;101232.06;5077090;28;45479;-59
2023/01/20 09:35:38;;;;;;;;;15.00;7.75;;;;;5.12;66.22;101228.63;5077072;28;45432;-59
2023/01/20 09:47:19;;;;;;;;;8.25;8.25;;;;;5.13;67.21;101257.59;5085373;27;45255;-58
2023/01/20 09:53:01;;;;;;;;;10.00;9.25;;;;;5.37;67.91;101256.16;5064378;28;45310;-59
2023/01/20 09:55:30;;;;;;;;;9.25;9.25;;;;;5.44;67.54;101254.22;5107296;27;45453;-59
2023/01/20 09:58:14;;;;;;;;;15.75;14.25;;;;;5.48;67.90;101258.53;5078315;27;47487;-59
2023/01/20 10:00:41;;;;;;;;;13.25;10.00;;;;;5.48;66.90;101259.41;5073521;28;45425;-59
2023/01/20 10:04:03;;;;;;;;;13.50;8.50;;;;;5.46;68.42;101260.31;5082525;27;45549;-59
2023/01/20 10:06:42;;;;;;;;;8.75;8.75;;;;;5.50;67.71;101252.31;5049832;28;45623;-58
2023/01/20 10:09:31;;;;;;;;;12.00;10.75;;;;;5.44;67.86;101260.38;5050432;28;45676;-59
2023/01/20 10:12:35;;;;;;;;;11.25;9.00;;;;;5.47;68.21;101251.50;5040723;27;45670;-59
2023/01/20 10:15:30;;;;;;;;;10.00;7.50;;;;;5.49;67.22;101265.56;5070396;27;45345;-58
2023/01/20 10:18:22;;;;;;;;;7.00;7.00;;;;;5.53;67.88;101261.94;5070701;27;45790;-57
2023/01/20 10:20:50;;;;;;;;;14.00;9.25;;;;;5.55;67.33;101260.97;5071466;27;45607;-59
2023/01/20 10:23:25;;;;;;;;;8.75;8.00;;;;;5.57;67.04;101253.88;5089198;27;45600;-59
2023/01/20 10:25:58;;;;;;;;;10.00;7.50;;;;;5.59;68.06;101262.63;5092125;27;45428;-59
2023/01/20 10:28:29;;;;;;;;;7.75;7.75;;;;;5.73;67.88;101269.34;5094322;27;45259;-58
2023/01/20 10:30:59;;;;;;;;;11.25;8.00;;;;;5.78;67.49;101278.88;5093418;27;45595;-59
2023/01/20 10:33:42;;;;;;;;;8.25;8.25;;;;;5.77;67.15;101258.69;5110070;27;45448;-59
2023/01/20 10:36:25;;;;;;;;;10.50;9.50;;;;;5.93;67.54;101266.22;5094045;27;45342;-58
2023/01/20 10:38:53;;;;;;;;;15.75;9.00;;;;;6.05;67.74;101271.19;5080686;27;45497;-57
2023/01/20 10:41:37;;;;;;;;;12.00;11.00;;;;;6.10;67.14;101269.28;5089768;27;45454;-60
2023/01/20 10:44:13;;;;;;;;;14.25;8.25;;;;;6.16;66.54;101269.13;5073137;27;45464;-59
2023/01/20 10:46:47;;;;;;;;;10.50;7.75;;;;;6.19;66.48;101276.97;5073717;28;45328;-59
2023/01/20 10:49:38;;;;;;;;;8.75;6.25;;;;;6.24;65.91;101275.06;5089074;27;45614;-57
2023/01/20 10:52:51;;;;;;;;;4.25;2.00;;;;;6.25;65.82;101274.16;5073664;27;45391;-59
2023/01/20 10:55:37;;;;;;;;;7.00;5.50;;;;;6.35;64.72;101269.47;4993771;28;45444;-58
2023/01/20 10:58:25;;;;;;;;;8.00;7.25;;;;;6.32;65.31;101262.50;4997694;28;45314;-58
2023/01/20 11:00:51;;;;;;;;;11.75;9.50;;;;;6.45;64.74;101257.75;5044041;28;45296;-57
2023/01/20 11:03:19;;;;;;;;;8.50;6.25;;;;;6.52;64.36;101261.09;5056880;28;45534;-58
2023/01/20 11:05:46;;;;;;;;;7.25;5.00;;;;;6.45;64.43;101263.91;5058059;28;45524;-57
2023/01/20 11:08:22;;;;;;;;;8.75;7.50;;;;;6.37;63.98;101255.31;5058884;28;45741;-57
2023/01/20 11:10:52;;;;;;;;;5.75;5.00;;;;;6.41;64.70;101269.31;5059575;28;45361;-59
2023/01/20 11:13:18;;;;;;;;;12.75;8.00;;;;;6.33;64.55;101251.03;5058877;28;45445;-56
2023/01/20 11:15:47;;;;;;;;;5.75;5.25;;;;;6.27;64.42;101272.34;5058440;28;45416;-59
2023/01/20 11:18:15;;;;;;;;;10.75;5.25;;;;;6.38;64.38;101265.00;5058060;28;45374;-58
2023/01/20 11:20:49;;;;;;;;;5.50;5.50;;;;;6.47;62.77;101269.13;5057640;28;45552;-58
2023/01/20 11:23:31;;;;;;;;;8.00;8.00;;;;;6.66;62.91;101261.56;5057868;28;45227;-58
2023/01/20 11:25:59;;;;;;;;;9.25;8.00;;;;;6.73;62.57;101268.38;5057858;28;45397;-58
2023/01/20 11:28:25;;;;;;;;;14.75;9.00;;;;;6.91;61.86;101270.50;5090954;27;45472;-58
2023/01/20 11:30:54;;;;;;;;;8.75;8.50;;;;;6.83;61.27;101235.50;5073161;28;45169;-58
2023/01/20 11:33:22;;;;;;;;;8.75;8.75;;;;;7.10;61.27;101270.78;5057791;28;45534;-58
2023/01/20 11:36:05;;;;;;;;;9.00;9.00;;;;;7.31;61.12;101263.97;5058180;28;45364;-58
2023/01/20 11:38:40;;;;;;;;;6.50;6.50;;;;;7.52;60.43;101273.00;5057728;28;45437;-58
2023/01/20 11:41:17;;;;;;;;;14.50;12.00;;;;;7.60;60.21;101277.13;5058170;28;45380;-57
2023/01/20 11:43:43;;;;;;;;;6.50;6.50;;;;;7.48;58.75;101266.94;5057386;28;45480;-58